createdAt,value
2023-02-14T00:00:22.848Z,19.43
2023-02-14T00:02:49.641Z,18.97
2023-02-14T00:05:16.091Z,18.20
2023-02-14T00:07:42.363Z,19.27
2023-02-14T00:10:09.093Z,18.77
2023-02-14T00:12:35.689Z,19.63
2023-02-14T00:15:20.768Z,19.77
2023-02-14T00:17:47.775Z,19.93
2023-02-14T00:20:14.022Z,19.90
2023-02-14T00:22:40.243Z,19.03
2023-02-14T00:25:06.646Z,19.13
2023-02-14T00:27:32.879Z,19.63
2023-02-14T00:30:02.093Z,17.73
2023-02-14T00:32:31.736Z,19.00
2023-02-14T00:34:58.198Z,19.00
2023-02-14T00:37:24.432Z,19.47
2023-02-14T00:39:51.012Z,19.17
2023-02-14T00:42:17.258Z,19.60
2023-02-14T00:44:44.465Z,19.67
2023-02-14T00:47:11.287Z,19.57
2023-02-14T00:49:37.808Z,19.83
2023-02-14T00:52:04.612Z,19.47
2023-02-14T00:54:30.894Z,18.50
2023-02-14T00:56:57.117Z,17.87
2023-02-14T00:59:23.497Z,18.17
2023-02-14T01:01:49.842Z,19.50
2023-02-14T01:04:16.056Z,18.40
2023-02-14T01:06:42.354Z,18.97
2023-02-14T01:09:08.577Z,17.90
2023-02-14T01:11:34.896Z,18.13
2023-02-14T01:14:01.773Z,17.90
2023-02-14T01:16:28.529Z,18.30
2023-02-14T01:18:54.996Z,18.10
2023-02-14T01:21:21.196Z,17.20
2023-02-14T01:23:48.220Z,17.63
2023-02-14T01:26:14.812Z,19.00
2023-02-14T01:28:44.630Z,18.97
2023-02-14T01:31:18.668Z,18.93
2023-02-14T01:33:46.445Z,19.07
2023-02-14T01:36:16.868Z,18.43
2023-02-14T01:38:43.177Z,20.17
2023-02-14T01:41:09.488Z,19.20
2023-02-14T01:43:53.410Z,18.33
2023-02-14T01:46:20.064Z,19.23
2023-02-14T01:48:47.073Z,20.03
2023-02-14T01:51:14.408Z,18.77
2023-02-14T01:53:40.671Z,18.30
2023-02-14T01:56:09.937Z,19.00
2023-02-14T01:58:37.511Z,18.50
2023-02-14T02:01:04.534Z,17.67
2023-02-14T02:03:35.892Z,17.90
2023-02-14T02:06:08.086Z,18.83
2023-02-14T02:08:37.084Z,18.17
2023-02-14T02:11:03.321Z,18.63
2023-02-14T02:13:30.060Z,19.80
2023-02-14T02:16:09.407Z,18.10
2023-02-14T02:18:54.504Z,19.07
2023-02-14T02:21:39.313Z,17.33
2023-02-14T02:24:05.536Z,17.57
2023-02-14T02:26:37.790Z,17.57
2023-02-14T02:29:07.099Z,18.37
2023-02-14T02:31:59.746Z,17.77
2023-02-14T02:34:44.873Z,17.63
2023-02-14T02:37:13.896Z,18.07
2023-02-14T02:39:46.247Z,17.43
2023-02-14T02:42:24.980Z,19.53
2023-02-14T02:45:12.117Z,18.57
2023-02-14T02:47:42.223Z,18.93
2023-02-14T02:50:39.555Z,18.57
2023-02-14T02:53:14.218Z,17.90
2023-02-14T02:56:17.901Z,17.57
2023-02-14T02:59:05.094Z,19.30
2023-02-14T03:01:33.618Z,19.60
2023-02-14T03:04:20.126Z,18.73
2023-02-14T03:06:47.019Z,19.60
2023-02-14T03:09:33.293Z,17.87
2023-02-14T03:12:06.889Z,18.63
2023-02-14T03:14:42.065Z,18.90
2023-02-14T03:17:36.020Z,18.87
2023-02-14T03:20:18.084Z,19.23
2023-02-14T03:22:49.145Z,19.20
2023-02-14T03:25:24.390Z,17.63
2023-02-14T03:27:54.756Z,18.37
2023-02-14T03:30:50.583Z,18.97
2023-02-14T03:33:20.797Z,18.90
2023-02-14T03:35:54.836Z,18.33
2023-02-14T03:38:28.033Z,17.37
2023-02-14T03:40:57.987Z,17.83
2023-02-14T03:43:30.293Z,18.73
2023-02-14T03:46:08.765Z,18.30
2023-02-14T03:48:35.858Z,18.30
2023-02-14T03:51:03.075Z,17.87
2023-02-14T03:53:31.628Z,17.63
2023-02-14T03:56:10.653Z,17.70
2023-02-14T03:58:38.655Z,18.03
2023-02-14T04:01:08.776Z,18.47
2023-02-14T04:03:38.178Z,18.53
2023-02-14T04:06:04.623Z,18.60
2023-02-14T04:08:30.879Z,17.87
2023-02-14T04:10:59.040Z,18.07
2023-02-14T04:13:25.560Z,17.57
2023-02-14T04:15:51.828Z,18.13
2023-02-14T04:18:36.890Z,18.47
2023-02-14T04:21:03.329Z,18.50
2023-02-14T04:23:29.556Z,19.17
2023-02-14T04:25:55.846Z,19.23
2023-02-14T04:28:22.140Z,18.60
2023-02-14T04:30:48.475Z,19.80
2023-02-14T04:33:14.709Z,20.20
2023-02-14T04:35:40.978Z,17.53
2023-02-14T04:38:07.223Z,18.80
2023-02-14T04:40:33.437Z,19.30
2023-02-14T04:43:01.354Z,19.20
2023-02-14T04:45:27.669Z,18.47
2023-02-14T04:47:53.890Z,18.93
2023-02-14T04:50:20.253Z,18.17
2023-02-14T04:52:46.530Z,18.67
2023-02-14T04:55:12.758Z,18.70
2023-02-14T04:57:39.029Z,18.73
2023-02-14T05:00:05.804Z,18.80
2023-02-14T05:02:32.077Z,18.90
2023-02-14T05:04:58.315Z,17.67
2023-02-14T05:07:24.593Z,19.47
2023-02-14T05:09:50.817Z,17.93
2023-02-14T05:12:17.080Z,19.47
2023-02-14T05:14:43.302Z,19.17
2023-02-14T05:17:09.573Z,17.63
2023-02-14T05:19:35.820Z,19.63
2023-02-14T05:22:02.158Z,19.43
2023-02-14T05:24:28.423Z,18.73
2023-02-14T05:26:54.656Z,18.90
2023-02-14T05:29:21.000Z,18.37
2023-02-14T05:31:47.286Z,19.80
2023-02-14T05:34:13.596Z,18.43
2023-02-14T05:36:39.892Z,19.37
2023-02-14T05:39:07.197Z,18.90
2023-02-14T05:41:33.515Z,18.80
2023-02-14T05:43:59.792Z,18.40
2023-02-14T05:46:26.032Z,18.87
2023-02-14T05:48:52.248Z,18.67
2023-02-14T05:51:18.495Z,19.63
2023-02-14T05:53:44.753Z,18.77
2023-02-14T05:56:11.073Z,19.03
2023-02-14T05:58:37.341Z,17.93
2023-02-14T06:01:03.729Z,17.93
2023-02-14T06:03:30.033Z,18.17
2023-02-14T06:05:56.306Z,18.53
2023-02-14T06:08:22.553Z,18.03
2023-02-14T06:10:48.849Z,16.73
2023-02-14T06:13:15.099Z,16.60
2023-02-14T06:15:41.416Z,16.87
2023-02-14T06:18:07.900Z,18.80
2023-02-14T06:20:34.151Z,19.00
2023-02-14T06:23:01.301Z,18.37
2023-02-14T06:25:27.718Z,17.70
2023-02-14T06:27:57.684Z,18.70
2023-02-14T06:30:24.617Z,18.90
2023-02-14T06:32:51.256Z,17.03
2023-02-14T06:35:17.652Z,17.77
2023-02-14T06:37:45.219Z,17.07
2023-02-14T06:40:12.097Z,17.03
2023-02-14T06:42:38.371Z,17.70
2023-02-14T06:45:05.143Z,18.20
2023-02-14T06:47:32.787Z,16.90
2023-02-14T06:50:00.182Z,16.60
2023-02-14T06:52:26.534Z,17.83
2023-02-14T06:54:52.759Z,17.33
2023-02-14T06:57:18.994Z,17.97
2023-02-14T06:59:45.250Z,18.03
2023-02-14T07:02:11.671Z,17.20
2023-02-14T07:04:37.937Z,17.73
2023-02-14T07:07:04.764Z,17.77
2023-02-14T07:09:31.048Z,16.80
2023-02-14T07:11:57.310Z,17.07
2023-02-14T07:14:23.598Z,17.83
2023-02-14T07:16:49.821Z,17.17
2023-02-14T07:19:16.232Z,17.20
2023-02-14T07:21:42.469Z,17.67
2023-02-14T07:24:08.807Z,17.63
2023-02-14T07:26:35.101Z,18.07
2023-02-14T07:29:01.398Z,18.00
2023-02-14T07:31:27.742Z,19.90
2023-02-14T07:33:54.075Z,18.40
2023-02-14T07:36:20.301Z,19.60
2023-02-14T07:38:46.550Z,17.77
2023-02-14T07:41:12.796Z,18.13
2023-02-14T07:43:39.715Z,18.87
2023-02-14T07:46:06.500Z,18.07
2023-02-14T07:48:34.350Z,17.73
2023-02-14T07:51:01.407Z,18.20
2023-02-14T07:53:27.877Z,18.00
2023-02-14T07:55:54.125Z,16.73
2023-02-14T07:58:20.395Z,17.97
2023-02-14T08:00:46.725Z,16.67
2023-02-14T08:03:13.653Z,16.77
2023-02-14T08:05:39.996Z,17.27
2023-02-14T08:08:06.262Z,17.33
2023-02-14T08:10:32.621Z,14.77
2023-02-14T08:12:58.908Z,17.17
2023-02-14T08:15:53.430Z,16.83
2023-02-14T08:18:20.533Z,18.30
2023-02-14T08:20:48.709Z,18.03
2023-02-14T08:23:15.337Z,16.43
2023-02-14T08:25:41.818Z,16.57
2023-02-14T08:28:08.346Z,16.87
2023-02-14T08:30:36.854Z,17.47
2023-02-14T08:33:03.529Z,16.10
2023-02-14T08:35:29.844Z,17.07
2023-02-14T08:37:56.109Z,18.07
2023-02-14T08:40:22.361Z,17.13
2023-02-14T08:42:48.692Z,16.63
2023-02-14T08:45:14.933Z,17.23
2023-02-14T08:47:41.285Z,18.10
2023-02-14T08:50:10.873Z,18.57
2023-02-14T08:52:38.454Z,18.30
2023-02-14T08:55:05.297Z,18.43
2023-02-14T08:57:31.534Z,18.27
2023-02-14T08:59:57.829Z,18.20
2023-02-14T09:02:24.467Z,18.00
2023-02-14T09:04:50.716Z,17.77
2023-02-14T09:07:17.000Z,17.00
2023-02-14T09:09:43.318Z,16.67
2023-02-14T09:12:10.385Z,17.63
2023-02-14T09:14:37.611Z,17.87
2023-02-14T09:17:05.762Z,16.63
2023-02-14T09:19:32.827Z,17.90
2023-02-14T09:21:59.069Z,18.03
2023-02-14T09:24:25.385Z,18.27
2023-02-14T09:26:51.631Z,17.57
2023-02-14T09:29:18.619Z,18.50
2023-02-14T09:31:45.128Z,17.70
2023-02-14T09:34:30.382Z,18.33
2023-02-14T09:37:15.298Z,17.87
2023-02-14T09:39:41.545Z,18.40
2023-02-14T09:42:14.923Z,18.60
2023-02-14T09:44:51.612Z,18.27
2023-02-14T09:47:20.725Z,23.97
2023-02-14T09:49:47.638Z,19.17
2023-02-14T09:52:16.560Z,18.73
2023-02-14T09:54:47.826Z,18.67
2023-02-14T09:57:21.391Z,19.30
2023-02-14T10:00:11.031Z,18.53
2023-02-14T10:02:58.115Z,18.53
2023-02-14T10:05:29.628Z,17.77
2023-02-14T10:08:08.218Z,18.20
2023-02-14T10:10:34.983Z,18.57
2023-02-14T10:13:13.874Z,17.87
2023-02-14T10:15:42.794Z,18.57
2023-02-14T10:18:19.252Z,18.90
2023-02-14T10:20:47.080Z,17.43
2023-02-14T10:23:22.384Z,18.57
2023-02-14T10:25:52.736Z,17.90
2023-02-14T10:28:25.229Z,17.67
2023-02-14T10:31:20.843Z,16.60
2023-02-14T10:33:51.821Z,17.63
2023-02-14T10:36:25.907Z,16.87
2023-02-14T10:38:59.764Z,17.20
2023-02-14T10:41:25.984Z,17.13
2023-02-14T10:44:04.116Z,18.27
2023-02-14T10:46:30.734Z,17.10
2023-02-14T10:49:17.268Z,18.13
2023-02-14T10:51:52.522Z,17.37
2023-02-14T10:54:20.594Z,17.10
2023-02-14T10:57:00.335Z,18.40
2023-02-14T10:59:30.839Z,16.77
2023-02-14T11:01:58.322Z,17.53
2023-02-14T11:04:25.216Z,17.40
2023-02-14T11:06:51.748Z,16.70
2023-02-14T11:09:18.543Z,17.37
2023-02-14T11:11:51.105Z,17.07
2023-02-14T11:14:22.457Z,17.47
2023-02-14T11:16:51.864Z,18.60
2023-02-14T11:19:22.825Z,18.23
2023-02-14T11:21:53.803Z,17.57
2023-02-14T11:24:20.023Z,17.27
2023-02-14T11:26:47.862Z,18.40
2023-02-14T11:29:15.872Z,17.10
2023-02-14T11:31:42.356Z,18.23
2023-02-14T11:34:27.555Z,18.53
2023-02-14T11:36:54.077Z,18.10
2023-02-14T11:39:27.454Z,17.13
2023-02-14T11:41:56.091Z,17.23
2023-02-14T11:44:24.094Z,17.70
2023-02-14T11:46:53.450Z,17.67
2023-02-14T11:49:27.454Z,18.00
2023-02-14T11:51:54.148Z,18.17
2023-02-14T11:54:27.966Z,17.53
2023-02-14T11:56:56.286Z,17.33
2023-02-14T11:59:36.872Z,17.30
2023-02-14T12:02:23.376Z,18.20
2023-02-14T12:04:52.900Z,17.77
2023-02-14T12:07:27.564Z,18.30
2023-02-14T12:10:08.509Z,17.77
2023-02-14T12:12:34.792Z,17.33
2023-02-14T12:15:22.826Z,18.60
2023-02-14T12:17:49.776Z,17.63
2023-02-14T12:20:17.613Z,17.63
2023-02-14T12:22:51.709Z,17.57
2023-02-14T12:25:24.342Z,16.37
2023-02-14T12:27:53.548Z,17.77
2023-02-14T12:30:21.624Z,18.00
2023-02-14T12:32:49.425Z,16.70
2023-02-14T12:35:17.624Z,17.57
2023-02-14T12:37:56.040Z,17.60
2023-02-14T12:40:29.275Z,17.03
2023-02-14T12:42:55.550Z,17.27
2023-02-14T12:45:29.620Z,17.00
2023-02-14T12:48:11.884Z,16.13
2023-02-14T12:50:41.866Z,17.67
2023-02-14T12:53:24.259Z,17.27
2023-02-14T12:56:09.445Z,17.00
2023-02-14T12:58:44.687Z,16.30
2023-02-14T13:01:28.550Z,17.47
2023-02-14T13:04:29.335Z,17.30
2023-02-14T13:06:59.549Z,16.97
2023-02-14T13:09:37.016Z,17.17
2023-02-14T13:12:18.464Z,18.03
2023-02-14T13:14:53.584Z,18.10
2023-02-14T13:17:38.377Z,16.90
2023-02-14T13:20:28.538Z,18.00
2023-02-14T13:22:55.693Z,18.27
2023-02-14T13:25:30.752Z,19.27
2023-02-14T13:27:58.052Z,18.27
2023-02-14T13:30:29.956Z,18.50
2023-02-14T13:32:57.824Z,18.03
2023-02-14T13:35:26.254Z,18.40
2023-02-14T13:38:00.278Z,17.97
2023-02-14T13:40:28.118Z,18.93
2023-02-14T13:42:58.221Z,17.80
2023-02-14T13:45:32.465Z,17.67
2023-02-14T13:48:10.636Z,17.70
2023-02-14T13:50:48.537Z,16.87
2023-02-14T13:53:28.615Z,17.97
2023-02-14T13:55:55.926Z,16.83
2023-02-14T13:58:24.113Z,17.73
2023-02-14T14:00:51.241Z,16.63
2023-02-14T14:03:30.001Z,17.43
2023-02-14T14:06:04.445Z,16.47
2023-02-14T14:08:34.721Z,17.27
2023-02-14T14:11:11.196Z,16.80
2023-02-14T14:13:40.570Z,18.20
2023-02-14T14:16:26.604Z,17.60
2023-02-14T14:18:52.867Z,17.00
2023-02-14T14:21:36.260Z,18.37
2023-02-14T14:24:04.073Z,17.47
2023-02-14T14:26:38.018Z,17.57
2023-02-14T14:29:10.969Z,16.47
2023-02-14T14:31:37.372Z,17.17
2023-02-14T14:34:03.679Z,17.27
2023-02-14T14:36:29.986Z,16.90
2023-02-14T14:38:56.222Z,17.70
2023-02-14T14:41:29.266Z,17.57
2023-02-14T14:43:55.562Z,16.70
2023-02-14T14:46:22.529Z,17.17
2023-02-14T14:48:50.578Z,17.57
2023-02-14T14:51:22.799Z,17.67
2023-02-14T14:54:01.290Z,16.60
2023-02-14T14:56:29.265Z,17.13
2023-02-14T14:58:55.648Z,16.10
2023-02-14T15:01:33.099Z,16.07
2023-02-14T15:04:14.768Z,17.23
2023-02-14T15:06:41.131Z,17.27
2023-02-14T15:09:30.804Z,16.83
2023-02-14T15:12:17.106Z,16.17
2023-02-14T15:14:45.118Z,16.37
2023-02-14T15:17:15.510Z,17.00
2023-02-14T15:19:44.075Z,16.43
2023-02-14T15:22:33.759Z,16.23
2023-02-14T15:25:00.109Z,15.87
2023-02-14T15:27:28.598Z,16.33
2023-02-14T15:29:56.558Z,15.37
2023-02-14T15:32:23.669Z,16.20
2023-02-14T15:34:50.014Z,16.87
2023-02-14T15:37:16.838Z,16.80
2023-02-14T15:39:44.418Z,16.40
2023-02-14T15:42:22.604Z,15.50
2023-02-14T15:44:49.011Z,15.27
2023-02-14T15:47:15.542Z,15.57
2023-02-14T15:49:43.476Z,15.17
2023-02-14T15:52:14.024Z,16.37
2023-02-14T15:54:44.045Z,16.03
2023-02-14T15:57:23.175Z,16.30
2023-02-14T15:59:49.767Z,16.23
2023-02-14T16:02:28.558Z,16.87
2023-02-14T16:04:55.027Z,17.30
2023-02-14T16:07:23.456Z,17.07
2023-02-14T16:09:50.476Z,16.93
2023-02-14T16:12:19.695Z,17.37
2023-02-14T16:14:46.530Z,16.53
2023-02-14T16:17:13.923Z,17.57
2023-02-14T16:19:44.879Z,16.43
2023-02-14T16:22:13.180Z,18.87
2023-02-14T16:24:40.376Z,17.90
2023-02-14T16:27:13.213Z,17.53
2023-02-14T16:29:41.167Z,17.10
2023-02-14T16:32:16.064Z,18.50
2023-02-14T16:34:43.411Z,17.17
2023-02-14T16:37:18.663Z,18.63
2023-02-14T16:39:45.054Z,17.73
2023-02-14T16:42:14.600Z,17.57
2023-02-14T16:44:40.821Z,17.57
2023-02-14T16:47:10.845Z,18.73
2023-02-14T16:49:37.076Z,17.80
2023-02-14T16:52:03.398Z,18.43
2023-02-14T16:54:29.647Z,17.43
2023-02-14T16:56:58.073Z,17.80
2023-02-14T16:59:24.309Z,17.97
2023-02-14T17:01:50.552Z,18.00
2023-02-14T17:04:16.987Z,17.87
2023-02-14T17:06:47.082Z,18.10
2023-02-14T17:09:14.746Z,17.97
2023-02-14T17:11:44.053Z,17.50
2023-02-14T17:14:11.317Z,17.90
2023-02-14T17:16:37.540Z,19.23
2023-02-14T17:19:03.822Z,18.30
2023-02-14T17:21:30.152Z,18.57
2023-02-14T17:23:57.161Z,18.50
2023-02-14T17:26:23.397Z,18.40
2023-02-14T17:28:49.742Z,20.23
2023-02-14T17:31:16.045Z,19.37
2023-02-14T17:33:42.497Z,20.23
2023-02-14T17:36:11.869Z,20.37
2023-02-14T17:38:38.630Z,19.10
2023-02-14T17:41:15.603Z,19.90
2023-02-14T17:43:41.891Z,20.40
2023-02-14T17:46:08.162Z,19.90
2023-02-14T17:48:35.500Z,19.70
2023-02-14T17:51:05.507Z,19.50
2023-02-14T17:53:33.279Z,19.17
2023-02-14T17:56:06.427Z,19.73
2023-02-14T17:58:32.740Z,19.53
2023-02-14T18:01:06.273Z,22.00
2023-02-14T18:03:33.139Z,19.90
2023-02-14T18:06:01.264Z,21.60
2023-02-14T18:08:28.914Z,21.07
2023-02-14T18:10:55.568Z,20.70
2023-02-14T18:13:22.486Z,20.23
2023-02-14T18:15:49.116Z,20.77
2023-02-14T18:18:15.390Z,21.60
2023-02-14T18:20:41.627Z,21.13
2023-02-14T18:23:07.863Z,21.63
2023-02-14T18:25:34.324Z,21.27
2023-02-14T18:28:00.554Z,21.83
2023-02-14T18:30:27.074Z,20.03
2023-02-14T18:32:53.525Z,20.27
2023-02-14T18:35:22.878Z,19.83
2023-02-14T18:37:49.094Z,20.97
2023-02-14T18:40:20.150Z,20.33
2023-02-14T18:42:46.474Z,20.90
2023-02-14T18:45:12.689Z,20.20
2023-02-14T18:47:38.904Z,18.93
2023-02-14T18:50:05.465Z,20.00
2023-02-14T18:52:31.674Z,20.13
2023-02-14T18:54:59.335Z,18.80
2023-02-14T18:57:26.412Z,18.60
2023-02-14T18:59:52.760Z,19.17
2023-02-14T19:02:21.441Z,19.33
2023-02-14T19:04:49.614Z,19.60
2023-02-14T19:07:15.875Z,18.77
2023-02-14T19:09:43.092Z,18.10
2023-02-14T19:12:09.918Z,17.17
2023-02-14T19:14:36.421Z,18.57
2023-02-14T19:17:05.439Z,17.93
2023-02-14T19:19:31.727Z,18.80
2023-02-14T19:21:58.743Z,19.00
2023-02-14T19:24:25.699Z,19.37
2023-02-14T19:26:52.642Z,20.83
2023-02-14T19:29:20.530Z,19.20
2023-02-14T19:31:48.416Z,20.97
2023-02-14T19:34:19.043Z,19.57
2023-02-14T19:36:45.940Z,20.23
2023-02-14T19:39:12.597Z,22.43
2023-02-14T19:41:39.580Z,22.13
2023-02-14T19:44:07.068Z,22.33
2023-02-14T19:46:34.113Z,23.53
2023-02-14T19:49:00.982Z,23.70
2023-02-14T19:51:29.234Z,24.13
2023-02-14T19:53:56.118Z,23.33
2023-02-14T19:56:23.677Z,23.57
2023-02-14T19:58:50.670Z,21.43
2023-02-14T20:01:44.309Z,22.30
2023-02-14T20:04:13.683Z,22.63
2023-02-14T20:06:40.237Z,21.43
2023-02-14T20:09:07.063Z,20.53
2023-02-14T20:11:36.449Z,21.80
2023-02-14T20:14:03.256Z,22.47
2023-02-14T20:16:30.536Z,22.83
2023-02-14T20:18:57.477Z,21.10
2023-02-14T20:21:25.528Z,22.37
2023-02-14T20:23:51.893Z,22.53
2023-02-14T20:26:19.166Z,21.70
2023-02-14T20:28:45.654Z,22.33
2023-02-14T20:31:13.739Z,23.47
2023-02-14T20:33:40.511Z,23.23
2023-02-14T20:36:12.294Z,22.97
2023-02-14T20:38:39.688Z,24.60
2023-02-14T20:41:09.537Z,23.60
2023-02-14T20:43:38.862Z,24.37
2023-02-14T20:46:06.936Z,24.10
2023-02-14T20:48:35.569Z,25.57
2023-02-14T20:51:12.120Z,25.13
2023-02-14T20:53:39.258Z,24.47
2023-02-14T20:56:06.142Z,23.77
2023-02-14T20:58:32.562Z,25.00
2023-02-14T21:01:08.564Z,25.07
2023-02-14T21:03:38.099Z,24.70
2023-02-14T21:06:05.284Z,22.93
2023-02-14T21:08:31.526Z,23.47
2023-02-14T21:10:57.843Z,23.97
2023-02-14T21:13:24.076Z,24.33
2023-02-14T21:15:50.368Z,24.67
2023-02-14T21:18:16.686Z,24.33
2023-02-14T21:20:43.084Z,24.93
2023-02-14T21:23:09.294Z,24.63
2023-02-14T21:25:35.810Z,24.10
2023-02-14T21:28:02.068Z,24.27
2023-02-14T21:30:30.962Z,24.63
2023-02-14T21:32:57.324Z,23.33
2023-02-14T21:35:23.749Z,22.87
2023-02-14T21:37:50.059Z,25.03
2023-02-14T21:40:16.873Z,23.20
2023-02-14T21:42:43.134Z,22.90
2023-02-14T21:45:29.884Z,22.70
2023-02-14T21:48:14.830Z,21.57
2023-02-14T21:50:41.159Z,20.97
2023-02-14T21:53:07.674Z,20.20
2023-02-14T21:55:34.497Z,19.57
2023-02-14T21:58:00.763Z,20.83
2023-02-14T22:00:27.012Z,20.20
2023-02-14T22:02:53.268Z,19.50
2023-02-14T22:05:19.566Z,20.50
2023-02-14T22:07:45.838Z,19.57
2023-02-14T22:10:13.721Z,19.77
2023-02-14T22:12:40.031Z,19.33
2023-02-14T22:15:06.409Z,17.60
2023-02-14T22:17:33.163Z,17.80
2023-02-14T22:19:59.384Z,19.07
2023-02-14T22:22:25.647Z,20.27
2023-02-14T22:24:51.954Z,18.40
2023-02-14T22:27:18.187Z,19.27
2023-02-14T22:29:44.532Z,17.87
2023-02-14T22:32:11.877Z,18.13
2023-02-14T22:34:38.276Z,18.63
2023-02-14T22:37:04.533Z,20.07
2023-02-14T22:39:30.823Z,18.23
2023-02-14T22:41:57.449Z,18.80
2023-02-14T22:44:23.710Z,20.03
2023-02-14T22:46:50.034Z,19.67
2023-02-14T22:49:16.310Z,19.33
2023-02-14T23:03:47.192Z,19.77
2023-02-14T23:06:14.270Z,19.47
2023-02-14T23:08:41.153Z,20.40
2023-02-14T23:11:08.685Z,19.37
2023-02-14T23:13:53.620Z,21.30
2023-02-14T23:16:38.462Z,20.43
2023-02-14T23:19:23.216Z,19.90
2023-02-14T23:21:55.313Z,19.37
2023-02-14T23:24:21.754Z,19.97
2023-02-14T23:26:47.999Z,19.07
2023-02-14T23:29:14.224Z,19.50
2023-02-14T23:31:40.563Z,19.10
2023-02-14T23:34:07.028Z,20.70
2023-02-14T23:36:33.254Z,19.37
2023-02-14T23:38:59.482Z,20.13
2023-02-14T23:41:44.224Z,19.77
2023-02-14T23:44:10.454Z,19.30
2023-02-14T23:46:36.730Z,19.43
2023-02-14T23:49:03.121Z,20.27
2023-02-14T23:51:29.423Z,19.40
2023-02-14T23:53:55.693Z,19.43
2023-02-14T23:56:21.953Z,20.13
2023-02-14T23:58:48.151Z,19.90
